Terminal Aerodrome Forecast
Issued by NWS

Home | Current Version | Previous Version | Graphics & Text | Print | Product List | Glossary On
Versions: 1 2 3 4 5 6 7 8 9 10 11 12 13
000
FTUS43 KICT 210520
TAFRSL
TAF
KRSL 210520Z 2106/2206 10007KT P6SM VCSH OVC130
     FM211500 08014G20KT P6SM VCSH OVC080
     FM211900 02012KT 6SM SHRA VCTS OVC025CB
     FM220300 01011KT 6SM SHRA OVC030=

USA.gov is the U.S. government's official web portal to all federal, state and local government web resources and services.